• Join FlightAware (Why Join?)
  • Login
  • US Flag 
08:11PM EDT


 

Airport Tracker/Info


-or-


 

Live Flight TrackerFlight Track Log ✈ RPA3228 ✈ 05-Jul-2013 ✈ KDCA - KBUF

Flight Track Log - Related Links

Times and Time Zones

All times are in EDT time to prevent confusion due to time zone crossing. See the RPA3228 flight status page for this flight to view local times or setup timezone preferences in your user account.

Time Position Orientation Groundspeed Altitude Reporting Facility
EDT Latitude Longitude Course Direction KTS MPH feet Rate Location/Type
10:34AM 38.8000 -77.0333 339° North 154 177 1,900  Level Potomac TRACON
10:35AM 38.7500 -77.0500 195° South 246 283 4,600 1,560 Climbing Potomac TRACON
10:36AM 39.1483 -77.1904 330° Northwest  Level FlightAware Approximate
10:36AM 38.7500 -77.1167 270° West 262 302 5,000  Level Potomac TRACON
10:37AM 39.2529 -77.2442 337° Northwest  Level FlightAware Approximate
10:37AM 38.7667 -77.2167 282° West 268 308 7,800  Level Potomac TRACON
10:38AM 39.3572 -77.3021 337° Northwest  Level FlightAware Approximate
10:38AM 38.8167 -77.2833 314° West 284 327 10,800  Level Potomac TRACON
10:39AM 39.4602 -77.3634 339° North  Level FlightAware Approximate
10:39AM 38.8833 -77.3500 322° Northwest 289 333 11,000  Level Potomac TRACON
10:41AM 39.0633 -77.4842 330° Northwest 325 374 16,900 2,220 Climbing Washington Center
10:42AM 39.1611 -77.4894 358° North 334 384 18,700 1,860 Climbing Washington Center
10:43AM 39.2656 -77.4814 North 347 399 20,700 2,100 Climbing Washington Center
10:44AM 39.3761 -77.4736 North 373 429 23,000 2,100 Climbing Washington Center
10:45AM 39.4867 -77.4658 North 387 445 24,900 840 Climbing Washington Center
10:47AM 39.6319 -77.4564 North 382 440 25,000  Climbing New York Center
10:48AM 39.7364 -77.4556 360° North 377 434 25,000  Level New York Center
10:49AM 39.8408 -77.4547 360° North 372 428 25,000  Level New York Center
10:50AM 39.9397 -77.4722 352° North 365 420 25,000  Level New York Center
10:51AM 40.0378 -77.5089 344° North 365 420 25,000  Level New York Center
10:52AM 40.1358 -77.5456 344° North 365 420 25,000  Level New York Center
10:53AM 40.2294 -77.5844 342° North 359 413 25,000  Level New York Center
10:54AM 40.3253 -77.6239 343° North 359 413 25,000 -180 Level New York Center
10:55AM 40.4189 -77.6606 343° North 354 407 24,700 -540 Descending New York Center
10:56AM 40.5125 -77.7000 342° North 354 407 24,000 -360 Descending New York Center
10:57AM 40.6022 -77.7361 343° North 348 400 24,000  Level New York Center
10:59AM 40.7672 -77.8058 342° North 345 397 24,000  Level Cleveland Center
11:00AM 40.8578 -77.8433 343° North 345 397 24,000  Level Cleveland Center
11:01AM 40.9525 -77.8806 343° North 350 403 24,000  Level Cleveland Center
11:02AM 41.0453 -77.9208 342° North 350 403 24,000  Level Cleveland Center
11:03AM 41.1356 -77.9583 343° North 350 403 24,000  Level Cleveland Center
11:04AM 41.2408 -77.9983 344° North 350 403 24,000  Level Cleveland Center
11:05AM 41.3336 -78.0389 342° North 350 403 24,000  Level Cleveland Center
11:06AM 41.4242 -78.0797 341° North 350 403 24,000  Level Cleveland Center
11:07AM 41.5167 -78.1150 344° North 350 403 24,000  Level Cleveland Center
11:08AM 41.6069 -78.1558 341° North 350 403 24,000  Level Cleveland Center
11:09AM 41.6975 -78.1942 342° North 350 403 24,000 -60 Level Cleveland Center
11:10AM 41.7900 -78.2325 343° North 345 397 23,900 -960 Descending Cleveland Center
11:11AM 41.8783 -78.2711 342° North 350 403 22,100 -1,860 Descending Cleveland Center
11:12AM 41.9750 -78.3125 342° North 350 403 20,200 -2,040 Descending Cleveland Center
11:13AM 42.0697 -78.3539 342° North 355 409 18,100 -1,920 Descending Cleveland Center
11:14AM 42.1664 -78.3925 344° North 355 409 16,400 -1,800 Descending Cleveland Center
11:15AM 42.2547 -78.4286 343° North 360 414 14,500 -1,860 Descending Cleveland Center
11:16AM 42.3492 -78.4706 342° North 360 414 12,700 -1,620 Descending Cleveland Center
11:17AM 42.4375 -78.5097 342° North 346 398 11,300 -1,380 Descending Cleveland Center
11:18AM 42.5258 -78.5519 341° North 318 366 10,000 -1,380 Descending Cleveland Center
11:19AM 42.6014 -78.5833 343° North 290 334 8,600 -1,440 Descending Cleveland Center
11:20AM 42.6683 -78.6094 344° North 275 316 7,200 -1,320 Descending Cleveland Center
11:21AM 42.7442 -78.6467 340° North 265 305 6,000 -600 Descending Cleveland Center
11:22AM 42.8156 -78.6728 345° North 260 299 6,000  Level Cleveland Center
11:23AM 42.8733 -78.6425 21° North 270 311 6,000 -300 Level Cleveland Center
11:24AM 42.9475 -78.6006 22° Northeast 262 302 5,400 -600 Descending Cleveland Center